Time;durP1;ratioP1;P1;durP2;ratioP2;P2;SDS_P1;SDS_P2;PMS_P1;PMS_P2;Temp;Humidity;BMP_temperature;BMP_pressure;BME280_temperature;BME280_humidity;BME280_pressure;Samples;Min_cycle;Max_cycle;Signal;HPM_P1;HPM_P2
2022/01/01 00:00:14;;;;;;;9.80;3.20;;;;;;;-145.69;100.00;73090.16;5052483;28;20199;-74
2022/01/01 00:02:41;;;;;;;4.50;3.00;;;;;;;-145.69;100.00;73084.19;5052680;28;20200;-74
2022/01/01 00:05:09;;;;;;;4.53;2.70;;;;;;;-145.69;100.00;73090.16;5052410;28;20234;-73
2022/01/01 00:07:38;;;;;;;4.90;2.87;;;;;;;-145.69;100.00;73094.13;5052315;28;20199;-74
2022/01/01 00:10:07;;;;;;;5.57;2.30;;;;;;;-145.69;100.00;73108.06;5052420;28;20249;-74
2022/01/01 00:12:34;;;;;;;5.77;2.67;;;;;;;-145.69;100.00;73104.09;5052042;28;20220;-73
2022/01/01 00:15:02;;;;;;;3.97;2.40;;;;;;;-145.69;100.00;73110.06;5052445;28;20199;-74
2022/01/01 00:17:33;;;;;;;3.33;2.07;;;;;;;-145.69;100.00;73126.00;5052391;28;20552;-74
2022/01/01 00:19:59;;;;;;;4.00;1.90;;;;;;;-145.69;100.00;73149.88;5052074;28;20204;-74
2022/01/01 00:22:26;;;;;;;6.87;2.33;;;;;;;-145.69;100.00;73161.81;5052108;28;20203;-74
2022/01/01 00:24:54;;;;;;;4.77;2.57;;;;;;;-145.69;100.00;73165.81;5051927;28;20559;-74
2022/01/01 00:27:22;;;;;;;5.60;2.70;;;;;;;-145.69;100.00;73179.75;5052050;28;20570;-73
2022/01/01 00:29:48;;;;;;;4.63;2.17;;;;;;;-145.69;100.00;73193.66;5052275;28;20196;-73
2022/01/01 00:32:15;;;;;;;4.97;2.60;;;;;;;-145.69;100.00;73189.69;5049010;28;20200;-74
2022/01/01 00:34:41;;;;;;;5.80;2.60;;;;;;;-145.69;100.00;73213.56;5052260;28;20214;-74
2022/01/01 00:37:08;;;;;;;4.60;2.70;;;;;;;-145.69;100.00;73229.50;5054031;28;20200;-74
2022/01/01 00:39:34;;;;;;;3.90;2.60;;;;;;;-145.69;100.00;73249.41;5055837;28;20199;-73
2022/01/01 00:42:01;;;;;;;4.00;2.17;;;;;;;-145.69;100.00;73273.31;5055950;28;20215;-74
2022/01/01 00:44:30;;;;;;;4.77;2.43;;;;;;;-145.69;100.00;73277.28;5055944;28;20203;-74
2022/01/01 00:46:57;;;;;;;6.37;2.83;;;;;;;-145.69;100.00;73251.41;5055738;28;20223;-74
2022/01/01 00:49:23;;;;;;;4.97;3.10;;;;;;;-145.69;100.00;73257.38;5055567;28;20291;-74
2022/01/01 00:51:52;;;;;;;7.87;2.90;;;;;;;-145.69;100.00;73247.41;5055280;28;20236;-74
2022/01/01 00:54:18;;;;;;;5.27;2.87;;;;;;;-145.69;100.00;73205.63;5055589;28;20196;-74
2022/01/01 00:56:45;;;;;;;5.30;2.90;;;;;;;-145.69;100.00;73187.69;5055490;28;20196;-73
2022/01/01 00:59:12;;;;;;;5.97;2.40;;;;;;;-145.69;100.00;73197.66;5055332;28;20670;-73
2022/01/01 01:01:40;;;;;;;5.20;2.53;;;;;;;-145.69;100.00;73167.78;5055360;28;20207;-74
2022/01/01 01:04:06;;;;;;;4.23;2.10;;;;;;;-145.69;100.00;73153.84;5055176;28;20261;-74
2022/01/01 01:06:33;;;;;;;4.67;2.50;;;;;;;-145.69;100.00;73163.81;5055119;28;20227;-74
2022/01/01 01:09:00;;;;;;;5.77;2.80;;;;;;;-145.69;100.00;73165.81;5055173;28;20203;-73
2022/01/01 01:11:29;;;;;;;3.73;2.20;;;;;;;-145.69;100.00;73175.75;5055422;28;20206;-74
2022/01/01 01:13:58;;;;;;;3.97;2.30;;;;;;;-145.69;100.00;73203.63;5055234;28;20218;-74
2022/01/01 01:16:27;;;;;;;7.50;2.50;;;;;;;-145.69;100.00;73215.56;5055197;28;20282;-74
2022/01/01 01:18:57;;;;;;;2.97;1.70;;;;;;;-145.69;100.00;73217.56;5055057;28;20199;-74
2022/01/01 01:21:25;;;;;;;5.37;2.33;;;;;;;-145.69;100.00;73225.53;5055279;28;20247;-74
2022/01/01 01:23:54;;;;;;;3.27;1.83;;;;;;;-145.69;100.00;73217.56;5054540;28;20215;-73
2022/01/01 01:26:22;;;;;;;2.87;1.87;;;;;;;-145.69;100.00;73221.53;5054794;28;20278;-73
2022/01/01 01:28:50;;;;;;;3.40;1.80;;;;;;;-145.69;100.00;73229.50;5054982;28;20199;-73
2022/01/01 01:31:18;;;;;;;1.97;1.40;;;;;;;-145.69;100.00;73245.44;5055091;28;20290;-73
2022/01/01 01:33:45;;;;;;;2.27;1.50;;;;;;;-145.69;100.00;73281.25;5054461;28;20199;-73
2022/01/01 01:36:13;;;;;;;4.63;2.10;;;;;;;-145.69;100.00;73289.22;5055087;28;20575;-73
2022/01/01 01:38:42;;;;;;;3.60;1.90;;;;;;;-145.69;100.00;73293.22;5054762;28;20204;-74
2022/01/01 01:41:12;;;;;;;3.20;1.87;;;;;;;-145.69;100.00;73303.16;5054694;28;20207;-74
2022/01/01 01:43:39;;;;;;;5.17;2.13;;;;;;;-145.69;100.00;73285.25;5054648;28;20230;-73
2022/01/01 01:46:06;;;;;;;3.30;2.00;;;;;;;-145.69;100.00;73287.25;5054446;28;20227;-74
2022/01/01 01:48:34;;;;;;;4.13;2.20;;;;;;;-145.69;100.00;73285.25;5053746;28;20285;-73
2022/01/01 01:51:03;;;;;;;4.43;2.00;;;;;;;-145.69;100.00;73295.19;5054387;28;20227;-73
2022/01/01 01:53:31;;;;;;;5.00;2.10;;;;;;;-145.69;100.00;73301.19;5054627;28;20199;-73
2022/01/01 01:55:59;;;;;;;5.77;2.07;;;;;;;-145.69;100.00;73277.28;5053925;28;20598;-73
2022/01/01 01:58:28;;;;;;;3.90;1.70;;;;;;;-145.69;100.00;73263.34;5054288;28;20211;-74
2022/01/01 02:03:39;;;;;;;2.13;1.60;;;;;;;-145.69;100.00;73251.41;5054212;28;20472;-74
2022/01/01 02:06:06;;;;;;;3.07;1.80;;;;;;;-145.69;100.00;73255.38;5054294;28;20250;-74
2022/01/01 02:08:34;;;;;;;2.30;1.53;;;;;;;-145.69;100.00;73269.31;5054239;28;20203;-73
2022/01/01 02:11:01;;;;;;;3.03;1.70;;;;;;;-145.69;100.00;73267.34;5054064;28;20564;-74
2022/01/01 02:13:32;;;;;;;4.67;1.73;;;;;;;-145.69;100.00;73289.22;5054279;28;20199;-74
2022/01/01 02:16:15;;;;;;;2.37;1.50;;;;;;;-145.69;100.00;73297.19;5054255;28;20204;-74
2022/01/01 02:18:46;;;;;;;2.50;1.60;;;;;;;-145.69;100.00;73303.16;5054012;28;20203;-74
2022/01/01 02:21:15;;;;;;;5.73;1.47;;;;;;;-145.69;100.00;73317.09;5053996;28;20195;-74
2022/01/01 02:23:44;;;;;;;3.40;1.60;;;;;;;-145.69;100.00;73333.03;5053432;28;20195;-73
2022/01/01 02:26:12;;;;;;;2.17;1.47;;;;;;;-145.69;100.00;73342.97;5044044;28;20231;-73
2022/01/01 02:28:41;;;;;;;4.10;2.00;;;;;;;-145.69;100.00;73348.97;5034073;28;20199;-73
2022/01/01 02:31:07;;;;;;;3.27;1.53;;;;;;;-145.69;100.00;73348.97;5033797;28;20671;-73
2022/01/01 02:33:34;;;;;;;3.63;1.87;;;;;;;-145.69;100.00;73344.97;5033428;28;20207;-73
2022/01/01 02:36:02;;;;;;;1.97;1.43;;;;;;;-145.69;100.00;73360.91;5033784;28;20212;-74
2022/01/01 02:38:32;;;;;;;2.60;1.47;;;;;;;-145.69;100.00;73364.88;5033848;28;20207;-73
2022/01/01 02:40:59;;;;;;;2.83;1.70;;;;;;;-145.69;100.00;73364.88;5053735;28;20203;-73
2022/01/01 02:43:27;;;;;;;2.57;1.50;;;;;;;-145.69;100.00;73390.75;5053393;28;20207;-74
2022/01/01 02:45:54;;;;;;;3.57;1.70;;;;;;;-145.69;100.00;73404.69;5053497;28;20612;-74
2022/01/01 02:48:23;;;;;;;4.00;1.70;;;;;;;-145.69;100.00;73396.72;5050415;28;20203;-73
2022/01/01 02:50:53;;;;;;;2.67;1.70;;;;;;;-145.69;100.00;73386.78;5053036;28;20662;-73
2022/01/01 02:53:19;;;;;;;3.63;1.40;;;;;;;-145.69;100.00;73364.88;5053245;28;20286;-73
2022/01/01 02:55:47;;;;;;;3.17;1.80;;;;;;;-145.69;100.00;73392.75;5053195;28;20207;-73
2022/01/01 02:58:14;;;;;;;6.07;1.70;;;;;;;-145.69;100.00;73416.66;5053122;28;20253;-73
2022/01/01 03:00:42;;;;;;;2.13;1.33;;;;;;;-145.69;100.00;73432.56;5052318;28;20596;-73
2022/01/01 03:03:08;;;;;;;2.37;1.33;;;;;;;-145.69;100.00;73428.59;5052631;28;20195;-74
2022/01/01 03:05:36;;;;;;;3.07;1.33;;;;;;;-145.69;100.00;73430.56;5053352;28;20200;-74
2022/01/01 03:08:07;;;;;;;1.77;1.47;;;;;;;-145.69;100.00;73452.47;5052888;28;20227;-73
2022/01/01 03:10:33;;;;;;;4.73;1.60;;;;;;;-145.69;100.00;73448.50;5053213;28;20539;-73
2022/01/01 03:13:01;;;;;;;2.00;1.50;;;;;;;-145.69;100.00;73468.41;5052963;28;20202;-73
2022/01/01 03:15:28;;;;;;;2.30;1.50;;;;;;;-145.69;100.00;73472.38;5052440;28;20202;-73
2022/01/01 03:18:00;;;;;;;3.80;1.97;;;;;;;-145.69;100.00;73466.41;5052790;28;20207;-73
2022/01/01 03:20:26;;;;;;;3.03;1.77;;;;;;;-145.69;100.00;73468.41;5052756;28;20235;-73
2022/01/01 03:22:53;;;;;;;3.60;1.93;;;;;;;-145.69;100.00;73440.53;5053056;28;20204;-73
2022/01/01 03:25:19;;;;;;;3.70;1.80;;;;;;;-145.69;100.00;73418.63;5052736;28;20655;-73
2022/01/01 03:27:46;;;;;;;3.37;1.70;;;;;;;-145.69;100.00;73408.69;5052709;28;20772;-73
2022/01/01 03:30:14;;;;;;;4.50;1.87;;;;;;;-145.69;100.00;73402.72;5052773;28;20202;-73
2022/01/01 03:32:40;;;;;;;3.60;1.70;;;;;;;-145.69;100.00;73396.72;5052209;28;20231;-74
2022/01/01 03:35:07;;;;;;;2.47;1.57;;;;;;;-145.69;100.00;73408.69;5052924;28;20199;-74
2022/01/01 03:37:35;;;;;;;2.53;1.17;;;;;;;-145.69;100.00;73396.72;5052703;28;20655;-73
2022/01/01 03:40:02;;;;;;;4.67;2.07;;;;;;;-145.69;100.00;73382.81;5052945;28;20210;-73
2022/01/01 03:42:29;;;;;;;3.63;1.63;;;;;;;-145.69;100.00;73410.66;5052803;28;20207;-73
2022/01/01 03:44:55;;;;;;;5.63;1.53;;;;;;;-145.69;100.00;73438.53;5052211;28;20196;-74
2022/01/01 03:47:23;;;;;;;3.87;1.47;;;;;;;-145.69;100.00;73436.56;5052511;28;20724;-73
2022/01/01 03:49:50;;;;;;;4.63;2.30;;;;;;;-145.69;100.00;73424.59;5052629;28;20203;-74
2022/01/01 03:52:17;;;;;;;3.93;2.00;;;;;;;-145.69;100.00;73416.66;5052471;28;20325;-73
2022/01/01 03:54:46;;;;;;;4.37;2.30;;;;;;;-145.69;100.00;73390.75;5052610;28;20658;-73
2022/01/01 03:57:14;;;;;;;4.70;2.20;;;;;;;-145.69;100.00;73388.78;5052439;28;20202;-74
2022/01/01 03:59:41;;;;;;;3.70;2.20;;;;;;;-145.69;100.00;73400.72;5052847;28;20258;-73
2022/01/01 04:02:07;;;;;;;4.03;2.30;;;;;;;-145.69;100.00;73404.69;5052644;28;20203;-73
2022/01/01 04:04:35;;;;;;;3.63;2.20;;;;;;;-145.69;100.00;73392.75;5052668;28;20203;-73
2022/01/01 04:07:04;;;;;;;6.77;2.60;;;;;;;-145.69;100.00;73376.81;5052446;28;20231;-73
2022/01/01 04:09:30;;;;;;;4.63;2.23;;;;;;;-145.69;100.00;73368.88;5052475;28;20253;-73
2022/01/01 04:11:59;;;;;;;6.83;2.73;;;;;;;-145.69;100.00;73344.97;5054156;28;20647;-73
2022/01/01 04:14:26;;;;;;;7.97;3.00;;;;;;;-145.69;100.00;73346.97;5056319;28;20199;-73
2022/01/01 04:16:53;;;;;;;7.03;3.07;;;;;;;-145.69;100.00;73360.91;5056210;28;20553;-73
2022/01/01 04:19:25;;;;;;;7.07;2.83;;;;;;;-145.69;100.00;73360.91;5056418;28;20234;-73
2022/01/01 04:21:53;;;;;;;4.13;2.20;;;;;;;-145.69;100.00;73360.91;5056317;28;20207;-74
2022/01/01 04:24:20;;;;;;;7.23;2.90;;;;;;;-145.69;100.00;73329.03;5056020;28;20199;-74
2022/01/01 04:26:46;;;;;;;5.77;2.83;;;;;;;-145.69;100.00;73331.03;5055965;28;20238;-73
2022/01/01 04:29:12;;;;;;;5.57;2.80;;;;;;;-145.69;100.00;73341.00;5056053;28;20196;-73
2022/01/01 04:31:41;;;;;;;9.07;3.37;;;;;;;-145.69;100.00;73325.06;5053448;28;20203;-73
2022/01/01 04:34:08;;;;;;;4.90;2.73;;;;;;;-145.69;100.00;73348.97;5036107;28;20651;-73
2022/01/01 04:36:37;;;;;;;8.23;2.90;;;;;;;-145.69;100.00;73344.97;5036028;28;20208;-73
2022/01/01 04:39:05;;;;;;;5.63;2.70;;;;;;;-145.69;100.00;73356.91;5035832;28;20730;-73
2022/01/01 04:41:31;;;;;;;4.83;2.40;;;;;;;-145.69;100.00;73356.91;5036203;28;20621;-74
2022/01/01 04:43:58;;;;;;;8.43;2.80;;;;;;;-145.69;100.00;73360.91;5045241;28;20685;-74
2022/01/01 04:46:24;;;;;;;6.20;2.57;;;;;;;-145.69;100.00;73358.91;5055833;28;20196;-74
2022/01/01 04:48:51;;;;;;;5.20;2.40;;;;;;;-145.69;100.00;73370.84;5055519;28;20195;-74
2022/01/01 04:51:17;;;;;;;4.27;2.53;;;;;;;-145.69;100.00;73352.94;5055592;28;20314;-74
2022/01/01 04:53:48;;;;;;;4.03;2.53;;;;;;;-145.69;100.00;73374.84;5055458;28;20203;-73
2022/01/01 04:56:19;;;;;;;7.17;3.20;;;;;;;-145.69;100.00;73364.88;5055227;28;20226;-74
2022/01/01 04:58:48;;;;;;;7.10;3.00;;;;;;;-145.69;100.00;73350.94;5055451;28;20210;-73
2022/01/01 05:01:18;;;;;;;8.77;3.07;;;;;;;-145.69;100.00;73354.94;5055461;28;20206;-73
2022/01/01 05:03:45;;;;;;;6.63;3.20;;;;;;;-145.69;100.00;73366.88;5055562;28;20337;-74
2022/01/01 05:06:12;;;;;;;6.30;2.60;;;;;;;-145.69;100.00;73370.84;5055307;28;20673;-74
2022/01/01 05:08:38;;;;;;;6.27;2.63;;;;;;;-145.69;100.00;73368.88;5055251;28;20694;-74
2022/01/01 05:11:05;;;;;;;6.37;2.53;;;;;;;-145.69;100.00;73380.81;5055272;28;20192;-74
2022/01/01 05:13:33;;;;;;;5.97;2.80;;;;;;;-145.69;100.00;73380.81;5055216;28;20199;-73
2022/01/01 05:16:00;;;;;;;4.67;2.57;;;;;;;-145.69;100.00;73370.84;5055379;28;20202;-74
2022/01/01 05:18:28;;;;;;;4.20;2.07;;;;;;;-145.69;100.00;73376.81;5055233;28;20203;-74
2022/01/01 05:20:57;;;;;;;5.87;2.70;;;;;;;-145.69;100.00;73366.88;5055012;28;20246;-74
2022/01/01 05:23:24;;;;;;;4.90;2.10;;;;;;;-145.69;100.00;73364.88;5055203;28;20608;-74
2022/01/01 05:25:53;;;;;;;5.30;2.23;;;;;;;-145.69;100.00;73360.91;5055226;28;20206;-74
2022/01/01 05:28:22;;;;;;;5.50;2.23;;;;;;;-145.69;100.00;73372.84;5054968;28;20223;-74
2022/01/01 05:30:50;;;;;;;6.53;2.23;;;;;;;-145.69;100.00;73360.91;5054979;28;20207;-74
2022/01/01 05:33:19;;;;;;;6.87;2.30;;;;;;;-145.69;100.00;73372.84;5054511;28;20208;-74
2022/01/01 05:35:46;;;;;;;6.00;2.40;;;;;;;-145.69;100.00;73372.84;5054821;28;20199;-74
2022/01/01 05:38:17;;;;;;;5.13;2.57;;;;;;;-145.69;100.00;73376.81;5054938;28;20212;-74
2022/01/01 05:40:43;;;;;;;4.43;2.50;;;;;;;-145.69;100.00;73337.00;5054851;28;20294;-73
2022/01/01 05:43:13;;;;;;;5.83;2.57;;;;;;;-145.69;100.00;73348.97;5054517;28;20279;-73
2022/01/01 05:45:41;;;;;;;5.07;2.33;;;;;;;-145.69;100.00;73364.88;5054538;28;20204;-74
2022/01/01 05:48:09;;;;;;;4.33;2.40;;;;;;;-145.69;100.00;73350.94;5054305;28;20694;-73
2022/01/01 05:50:35;;;;;;;6.03;2.50;;;;;;;-145.69;100.00;73341.00;5054531;28;20199;-73
2022/01/01 05:53:02;;;;;;;4.40;2.30;;;;;;;-145.69;100.00;73356.91;5054394;28;20203;-73
2022/01/01 05:55:28;;;;;;;4.83;2.47;;;;;;;-145.69;100.00;73378.81;5054290;28;20195;-73
2022/01/01 05:57:59;;;;;;;3.87;2.10;;;;;;;-145.69;100.00;73380.81;5054365;28;20206;-73
2022/01/01 06:00:25;;;;;;;6.90;2.27;;;;;;;-145.69;100.00;73380.81;5054264;28;20203;-73
2022/01/01 06:02:52;;;;;;;10.10;2.43;;;;;;;-145.69;100.00;73380.81;5054386;28;20208;-73
2022/01/01 06:05:20;;;;;;;4.83;2.27;;;;;;;-145.69;100.00;73368.88;5054320;28;20677;-73
2022/01/01 06:07:46;;;;;;;5.17;2.67;;;;;;;-145.69;100.00;73366.88;5054154;28;20780;-73
2022/01/01 06:10:13;;;;;;;6.33;2.83;;;;;;;-145.69;100.00;73368.88;5054269;28;20208;-73
2022/01/01 06:12:40;;;;;;;5.33;2.10;;;;;;;-145.69;100.00;73370.84;5053844;28;20539;-73
2022/01/01 06:15:07;;;;;;;3.37;2.20;;;;;;;-145.69;100.00;73376.81;5054441;28;20203;-73
2022/01/01 06:17:33;;;;;;;4.70;2.30;;;;;;;-145.69;100.00;73372.84;5054070;28;20207;-73
2022/01/01 06:19:59;;;;;;;5.20;2.60;;;;;;;-145.69;100.00;73356.91;5054048;28;20249;-73
2022/01/01 06:22:27;;;;;;;4.27;2.20;;;;;;;-145.69;100.00;73358.91;5053770;28;20195;-73
2022/01/01 06:24:54;;;;;;;6.10;2.50;;;;;;;-145.69;100.00;73352.94;5053960;28;20203;-74
2022/01/01 06:27:20;;;;;;;3.63;2.27;;;;;;;-145.69;100.00;73360.91;5053721;28;20227;-74
2022/01/01 06:29:47;;;;;;;4.90;2.70;;;;;;;-145.69;100.00;73372.84;5044676;28;20551;-73
2022/01/01 06:32:14;;;;;;;4.90;2.27;;;;;;;-145.69;100.00;73356.91;5033913;28;20215;-73
2022/01/01 06:34:40;;;;;;;4.63;2.50;;;;;;;-145.69;100.00;73384.78;5033366;28;20204;-73
2022/01/01 06:37:07;;;;;;;4.67;2.23;;;;;;;-145.69;100.00;73412.66;5033606;28;20578;-73
2022/01/01 06:39:39;;;;;;;3.83;2.10;;;;;;;-145.69;100.00;73420.63;5033746;28;20204;-73
2022/01/01 06:42:05;;;;;;;5.13;2.13;;;;;;;-145.69;100.00;73402.72;5033680;28;20200;-73
2022/01/01 06:44:32;;;;;;;6.77;2.20;;;;;;;-145.69;100.00;73394.75;5052186;28;20203;-73
2022/01/01 06:46:58;;;;;;;5.67;2.33;;;;;;;-145.69;100.00;73406.69;5053534;28;20199;-74
2022/01/01 06:49:25;;;;;;;4.03;1.90;;;;;;;-145.69;100.00;73398.72;5053491;28;20555;-73
2022/01/01 06:51:51;;;;;;;3.63;2.20;;;;;;;-145.69;100.00;73412.66;5053252;28;20227;-73
2022/01/01 06:54:18;;;;;;;4.67;2.30;;;;;;;-145.69;100.00;73402.72;5053414;28;20625;-74
2022/01/01 06:56:46;;;;;;;3.83;2.10;;;;;;;-145.69;100.00;73404.69;5053523;28;20207;-73
2022/01/01 06:59:12;;;;;;;3.50;2.07;;;;;;;-145.69;100.00;73412.66;5053383;28;20253;-74
2022/01/01 07:01:39;;;;;;;4.00;2.10;;;;;;;-145.69;100.00;73426.59;5053393;28;20199;-74
2022/01/01 07:04:07;;;;;;;3.67;1.80;;;;;;;-145.69;100.00;73362.88;5053098;28;20203;-73
2022/01/01 07:06:34;;;;;;;4.77;1.80;;;;;;;-145.69;100.00;73333.03;5053226;28;20195;-73
2022/01/01 07:09:00;;;;;;;4.77;2.43;;;;;;;-145.69;100.00;73333.03;5052926;28;20231;-74
2022/01/01 07:11:27;;;;;;;4.03;1.70;;;;;;;-145.69;100.00;73348.97;5053360;28;20210;-74
2022/01/01 07:13:55;;;;;;;2.93;1.80;;;;;;;-145.69;100.00;73380.81;5052596;28;20202;-73
2022/01/01 07:16:21;;;;;;;4.40;2.10;;;;;;;-145.69;100.00;73406.69;5052720;28;20558;-73
2022/01/01 07:18:48;;;;;;;2.83;1.63;;;;;;;-145.69;100.00;73414.66;5052959;28;20605;-74
2022/01/01 07:21:14;;;;;;;5.10;1.73;;;;;;;-145.69;100.00;73412.66;5052743;28;20199;-73
2022/01/01 07:23:43;;;;;;;2.80;1.80;;;;;;;-145.69;100.00;73400.72;5052576;28;20203;-73
2022/01/01 07:26:10;;;;;;;3.87;1.83;;;;;;;-145.69;100.00;73408.69;5052828;28;20222;-74
2022/01/01 07:28:36;;;;;;;4.67;2.00;;;;;;;-145.69;100.00;73400.72;5051804;28;20227;-73
2022/01/01 07:31:04;;;;;;;3.30;1.90;;;;;;;-145.69;100.00;73396.72;5052848;28;20199;-73
2022/01/01 07:33:30;;;;;;;2.63;1.60;;;;;;;-145.69;100.00;73378.81;5052837;28;20225;-73
2022/01/01 07:35:57;;;;;;;3.53;1.90;;;;;;;-145.69;100.00;73388.78;5052710;28;20732;-73
2022/01/01 07:38:23;;;;;;;3.20;1.70;;;;;;;-145.69;100.00;73390.75;5052662;28;20654;-72
2022/01/01 07:40:53;;;;;;;3.80;2.10;;;;;;;-145.69;100.00;73384.78;5052793;28;20206;-73
2022/01/01 07:43:20;;;;;;;4.47;1.87;;;;;;;-145.69;100.00;73398.72;5052600;28;20227;-73
2022/01/01 07:45:47;;;;;;;7.03;2.30;;;;;;;-145.69;100.00;73416.66;5052614;28;20647;-73
2022/01/01 07:48:15;;;;;;;3.25;1.73;;;;;;;-145.69;100.00;73414.66;5052546;28;20583;-73
2022/01/01 07:50:41;;;;;;;4.07;1.90;;;;;;;-145.69;100.00;73408.69;5036257;28;20204;-74
2022/01/01 07:53:09;;;;;;;3.83;2.00;;;;;;;-145.69;100.00;73410.66;5036771;28;20200;-73
2022/01/01 07:55:36;;;;;;;5.73;2.00;;;;;;;-145.69;100.00;73390.75;5036742;28;20655;-73
2022/01/01 07:58:02;;;;;;;4.03;1.77;;;;;;;-145.69;100.00;73376.81;5036726;28;20539;-74
2022/01/01 08:00:29;;;;;;;4.67;1.77;;;;;;;-145.69;100.00;73374.84;5048794;28;20658;-73
2022/01/01 08:02:55;;;;;;;2.07;1.57;;;;;;;-145.69;100.00;73368.88;5056603;28;20299;-73
2022/01/01 08:05:23;;;;;;;2.93;1.50;;;;;;;-145.69;100.00;73358.91;5056584;28;20203;-73
2022/01/01 08:07:49;;;;;;;3.63;1.77;;;;;;;-145.69;100.00;73370.84;5056466;28;20259;-73
2022/01/01 08:10:19;;;;;;;1.77;1.40;;;;;;;-145.69;100.00;73362.88;5056671;28;20199;-73
2022/01/01 08:12:46;;;;;;;4.07;1.77;;;;;;;-145.69;100.00;73360.91;5055995;28;20302;-73
2022/01/01 08:15:12;;;;;;;2.97;1.67;;;;;;;-145.69;100.00;73346.97;5055797;28;20202;-73
2022/01/01 08:17:39;;;;;;;4.53;1.80;;;;;;;-145.69;100.00;73352.94;5056171;28;20203;-73
2022/01/01 08:20:06;;;;;;;3.43;1.67;;;;;;;-145.69;100.00;73342.97;5056324;28;20677;-73
2022/01/01 08:22:34;;;;;;;2.87;1.73;;;;;;;-145.69;100.00;73311.13;5056267;28;20199;-73
2022/01/01 08:25:01;;;;;;;3.63;1.80;;;;;;;-145.69;100.00;73297.19;5056296;28;20245;-73
2022/01/01 08:27:28;;;;;;;2.23;1.33;;;;;;;-145.69;100.00;73293.22;5056021;28;20717;-73
2022/01/01 08:29:54;;;;;;;1.67;1.30;;;;;;;-145.69;100.00;73293.22;5056069;28;20677;-73
2022/01/01 08:32:21;;;;;;;4.83;1.60;;;;;;;-145.69;100.00;73285.25;5055893;28;20196;-73
2022/01/01 08:34:47;;;;;;;2.67;1.60;;;;;;;-145.69;100.00;73307.16;5056201;28;20210;-73
2022/01/01 08:37:14;;;;;;;4.38;1.48;;;;;;;-145.69;100.00;73313.13;5038533;28;20436;-73
2022/01/01 08:39:41;;;;;;;4.13;1.40;;;;;;;-145.69;100.00;73301.19;5036026;28;20204;-73
2022/01/01 08:42:09;;;;;;;5.27;1.63;;;;;;;-145.69;100.00;73301.19;5035971;28;20200;-73
2022/01/01 08:44:36;;;;;;;2.07;1.30;;;;;;;-145.69;100.00;73325.06;5053256;28;20278;-73
2022/01/01 08:47:02;;;;;;;3.57;1.27;;;;;;;-145.69;100.00;73321.09;5055630;28;20250;-73
2022/01/01 08:49:29;;;;;;;3.10;1.47;;;;;;;-145.69;100.00;73303.16;5055648;28;20230;-74
2022/01/01 08:51:56;;;;;;;2.80;1.30;;;;;;;-145.69;100.00;73293.22;5055574;28;20254;-74
2022/01/01 08:54:22;;;;;;;1.87;1.30;;;;;;;-145.69;100.00;73285.25;5055789;28;20612;-73
2022/01/01 08:56:50;;;;;;;2.83;1.70;;;;;;;-145.69;100.00;73269.31;5055372;28;20624;-73
2022/01/01 08:59:17;;;;;;;3.73;1.43;;;;;;;-145.69;100.00;73249.41;5055207;28;20199;-73
2022/01/01 09:01:44;;;;;;;3.83;1.67;;;;;;;-145.69;100.00;73219.56;5055819;28;20261;-73
2022/01/01 09:04:10;;;;;;;3.37;1.83;;;;;;;-145.69;100.00;73201.63;5055502;28;20290;-73
2022/01/01 09:06:37;;;;;;;5.03;1.60;;;;;;;-145.69;100.00;73183.72;5055464;28;20207;-73
2022/01/01 09:09:03;;;;;;;3.40;1.40;;;;;;;-145.69;100.00;73141.91;5055018;28;20223;-73
2022/01/01 09:11:30;;;;;;;5.37;2.00;;;;;;;-145.69;100.00;73110.06;5055349;28;20200;-74
2022/01/01 09:13:57;;;;;;;3.93;1.80;;;;;;;-145.69;100.00;73104.09;5055308;28;20206;-74
2022/01/01 09:16:29;;;;;;;5.47;1.77;;;;;;;-145.69;100.00;73084.19;5056408;28;20215;-74
2022/01/01 09:18:56;;;;;;;8.07;2.07;;;;;;;-145.69;100.00;73066.25;5068506;28;20539;-75
2022/01/01 09:21:22;;;;;;;3.57;1.70;;;;;;;-145.69;100.00;73050.34;5055485;28;20249;-75
2022/01/01 09:23:49;;;;;;;2.77;1.43;;;;;;;-145.69;100.00;73036.41;5055182;28;20203;-75
2022/01/01 09:26:18;;;;;;;4.10;1.90;;;;;;;-145.69;100.00;73022.47;5055269;28;20204;-75
2022/01/01 09:28:44;;;;;;;1.63;1.20;;;;;;;-145.69;100.00;73008.53;5054818;28;20227;-74
2022/01/01 09:31:12;;;;;;;2.50;1.23;;;;;;;-145.69;100.00;73010.53;5055056;28;20207;-74
2022/01/01 09:33:38;;;;;;;3.67;1.33;;;;;;;-145.69;100.00;73014.50;5055041;28;20199;-75
2022/01/01 09:36:06;;;;;;;2.50;1.30;;;;;;;-145.69;100.00;73006.53;5055009;28;20253;-74
2022/01/01 09:38:35;;;;;;;4.07;1.20;;;;;;;-145.69;100.00;73004.56;5054455;28;20208;-74
2022/01/01 09:41:03;;;;;;;1.00;0.90;;;;;;;-145.69;100.00;72998.59;5054778;28;20210;-76
2022/01/01 09:43:32;;;;;;;1.53;0.97;;;;;;;-145.69;100.00;72988.63;5054858;28;20282;-75
2022/01/01 09:46:00;;;;;;;4.27;1.37;;;;;;;-145.69;100.00;72974.69;5054903;28;20202;-76
2022/01/01 09:48:29;;;;;;;1.70;1.00;;;;;;;-145.69;100.00;72970.72;5054719;28;20227;-75
2022/01/01 09:50:57;;;;;;;1.07;0.97;;;;;;;-145.69;100.00;72970.72;5054544;28;20242;-75
2022/01/01 09:53:26;;;;;;;3.13;1.50;;;;;;;-145.69;100.00;72948.81;5054803;28;20329;-76
2022/01/01 09:55:53;;;;;;;5.47;1.33;;;;;;;-145.69;100.00;72926.91;5054459;28;20207;-76
2022/01/01 09:58:23;;;;;;;1.83;1.10;;;;;;;-145.69;100.00;72922.94;5054642;28;20203;-75
2022/01/01 10:00:50;;;;;;;1.97;1.20;;;;;;;-145.69;100.00;72907.00;5054397;28;20198;-75
2022/01/01 10:03:16;;;;;;;2.67;1.30;;;;;;;-145.69;100.00;72891.09;5054511;28;20286;-74
2022/01/01 10:06:01;;;;;;;3.30;1.40;;;;;;;-145.69;100.00;72873.19;5054758;28;20253;-74
2022/01/01 10:08:28;;;;;;;2.97;1.10;;;;;;;-145.69;100.00;72861.22;5053960;28;20227;-74
2022/01/01 10:10:55;;;;;;;1.33;0.93;;;;;;;-145.69;100.00;72831.38;5053502;28;20249;-75
2022/01/01 10:13:33;;;;;;;1.30;0.90;;;;;;;-145.69;100.00;72815.44;5054313;28;20199;-74
2022/01/01 10:16:02;;;;;;;1.37;1.20;;;;;;;-145.69;100.00;72819.44;5054231;28;20199;-74
2022/01/01 10:18:30;;;;;;;2.77;1.30;;;;;;;-145.69;100.00;72803.50;5053914;28;20680;-74
2022/01/01 10:21:03;;;;;;;1.30;1.07;;;;;;;-145.69;100.00;72787.56;5054155;28;20230;-75
2022/01/01 10:23:32;;;;;;;2.53;1.30;;;;;;;-145.69;100.00;72763.69;5053817;28;20211;-74
2022/01/01 10:29:10;;;;;;;4.13;1.40;;;;;;;-145.69;100.00;72690.03;5053559;28;20265;-74
2022/01/01 10:31:38;;;;;;;1.23;1.00;;;;;;;-145.69;100.00;72666.16;5053350;28;20226;-74
2022/01/01 10:34:11;;;;;;;3.50;1.03;;;;;;;-145.69;100.00;72660.19;5053721;28;20206;-74
2022/01/01 10:36:39;;;;;;;2.33;1.00;;;;;;;-145.69;100.00;72646.25;5053676;28;20231;-74
2022/01/01 10:39:11;;;;;;;2.03;1.00;;;;;;;-145.69;100.00;72640.28;5053599;28;20199;-74
2022/01/01 10:41:45;;;;;;;4.90;3.90;;;;;;;-145.69;100.00;72608.44;5045422;28;20196;-74
2022/01/01 10:44:12;;;;;;;6.13;3.37;;;;;;;-145.69;100.00;72580.56;5033680;28;20215;-74
2022/01/01 10:46:40;;;;;;;19.47;8.17;;;;;;;-145.69;100.00;72568.63;5033826;28;20204;-74
2022/01/01 10:49:32;;;;;;;13.23;5.03;;;;;;;-145.69;100.00;72554.69;5033431;28;20723;-74
2022/01/01 10:52:14;;;;;;;10.37;4.07;;;;;;;-145.69;100.00;72552.69;5033321;28;20267;-74
2022/01/01 10:54:48;;;;;;;7.13;2.17;;;;;;;-145.69;100.00;72550.72;5033610;28;20200;-74
2022/01/01 10:57:26;;;;;;;4.03;2.03;;;;;;;-145.69;100.00;72548.72;5033566;28;20234;-74
2022/01/01 11:00:03;;;;;;;5.57;2.53;;;;;;;-145.69;100.00;72544.75;5033460;28;20207;-74
2022/01/01 11:02:32;;;;;;;5.77;2.10;;;;;;;-145.69;100.00;72540.75;5051411;28;20192;-74
2022/01/01 11:04:59;;;;;;;5.57;2.10;;;;;;;-145.69;100.00;72542.75;5053391;28;20207;-74
2022/01/01 11:07:27;;;;;;;7.30;2.57;;;;;;;-145.69;100.00;72540.75;5052870;28;20663;-74
2022/01/01 11:09:56;;;;;;;4.63;2.17;;;;;;;-145.69;100.00;72534.78;5053085;28;20665;-74
2022/01/01 11:12:24;;;;;;;5.37;2.70;;;;;;;-145.69;100.00;72514.88;5053199;28;20210;-74
2022/01/01 11:14:53;;;;;;;8.17;3.53;;;;;;;-145.69;100.00;72500.94;5051462;28;20203;-74
2022/01/01 11:17:25;;;;;;;7.30;3.40;;;;;;;-145.69;100.00;72481.03;5052491;28;20199;-74